sensor_id;sensor_type;location;lat;lon;timestamp;pressure;altitude;pressure_sealevel;temperature
76541;BMP280;65385;55.772;37.658;2022-12-07T00:00:17;100960.41;;;-8.04
76541;BMP280;65385;55.772;37.658;2022-12-07T00:01:23;100965.69;;;-8.07
76541;BMP280;65385;55.772;37.658;2022-12-07T00:02:23;100963.25;;;-8.09
76541;BMP280;65385;55.772;37.658;2022-12-07T00:03:24;100968.31;;;-8.09
76541;BMP280;65385;55.772;37.658;2022-12-07T00:04:24;100965.97;;;-8.12
76541;BMP280;65385;55.772;37.658;2022-12-07T00:05:25;100965.25;;;-8.14
76541;BMP280;65385;55.772;37.658;2022-12-07T00:06:26;100962.81;;;-8.15
76541;BMP280;65385;55.772;37.658;2022-12-07T00:07:26;100967.16;;;-8.17
76541;BMP280;65385;55.772;37.658;2022-12-07T00:08:27;100955.38;;;-8.18
76541;BMP280;65385;55.772;37.658;2022-12-07T00:09:28;100965.72;;;-8.21
76541;BMP280;65385;55.772;37.658;2022-12-07T00:10:28;100969.16;;;-8.22
76541;BMP280;65385;55.772;37.658;2022-12-07T00:11:29;100973.41;;;-8.23
76541;BMP280;65385;55.772;37.658;2022-12-07T00:12:29;100962.47;;;-8.23
76541;BMP280;65385;55.772;37.658;2022-12-07T00:13:31;100962.56;;;-8.25
76541;BMP280;65385;55.772;37.658;2022-12-07T00:14:32;100963.38;;;-8.24
76541;BMP280;65385;55.772;37.658;2022-12-07T00:15:33;100969.25;;;-8.24
76541;BMP280;65385;55.772;37.658;2022-12-07T00:16:35;100966.81;;;-8.25
76541;BMP280;65385;55.772;37.658;2022-12-07T00:17:35;100970.97;;;-8.24
76541;BMP280;65385;55.772;37.658;2022-12-07T00:18:36;100968.66;;;-8.27
76541;BMP280;65385;55.772;37.658;2022-12-07T00:19:36;100966.22;;;-8.29
76541;BMP280;65385;55.772;37.658;2022-12-07T00:20:37;100968.75;;;-8.29
76541;BMP280;65385;55.772;37.658;2022-12-07T00:21:38;100972.91;;;-8.28
76541;BMP280;65385;55.772;37.658;2022-12-07T00:22:38;100979.81;;;-8.30
76541;BMP280;65385;55.772;37.658;2022-12-07T00:23:39;100970.63;;;-8.32
76541;BMP280;65385;55.772;37.658;2022-12-07T00:24:40;100969.00;;;-8.33
76541;BMP280;65385;55.772;37.658;2022-12-07T00:25:41;100973.28;;;-8.34
76541;BMP280;65385;55.772;37.658;2022-12-07T00:26:42;100968.31;;;-8.35
76541;BMP280;65385;55.772;37.658;2022-12-07T00:27:42;100959.06;;;-8.36
76541;BMP280;65385;55.772;37.658;2022-12-07T00:28:47;100969.22;;;-8.36
76541;BMP280;65385;55.772;37.658;2022-12-07T00:29:48;100962.50;;;-8.37
76541;BMP280;65385;55.772;37.658;2022-12-07T00:30:48;100963.41;;;-8.38
76541;BMP280;65385;55.772;37.658;2022-12-07T00:31:49;100964.34;;;-8.40
76541;BMP280;65385;55.772;37.658;2022-12-07T00:32:50;100967.78;;;-8.41
76541;BMP280;65385;55.772;37.658;2022-12-07T00:33:51;100962.88;;;-8.44
76541;BMP280;65385;55.772;37.658;2022-12-07T00:34:51;100967.88;;;-8.42
76541;BMP280;65385;55.772;37.658;2022-12-07T00:35:56;100966.22;;;-8.43
76541;BMP280;65385;55.772;37.658;2022-12-07T00:36:56;100962.06;;;-8.44
76541;BMP280;65385;55.772;37.658;2022-12-07T00:37:57;100962.06;;;-8.44
76541;BMP280;65385;55.772;37.658;2022-12-07T00:38:58;100962.06;;;-8.44
76541;BMP280;65385;55.772;37.658;2022-12-07T00:40:00;100964.69;;;-8.46
76541;BMP280;65385;55.772;37.658;2022-12-07T00:41:04;100965.41;;;-8.44
76541;BMP280;65385;55.772;37.658;2022-12-07T00:42:04;100965.50;;;-8.45
76541;BMP280;65385;55.772;37.658;2022-12-07T00:43:05;100960.53;;;-8.47
76541;BMP280;65385;55.772;37.658;2022-12-07T00:44:05;100966.50;;;-8.48
76541;BMP280;65385;55.772;37.658;2022-12-07T00:45:06;100967.44;;;-8.49
76541;BMP280;65385;55.772;37.658;2022-12-07T00:46:07;100961.66;;;-8.51
76541;BMP280;65385;55.772;37.658;2022-12-07T00:47:07;100970.88;;;-8.50
76541;BMP280;65385;55.772;37.658;2022-12-07T00:48:08;100973.22;;;-8.47
76541;BMP280;65385;55.772;37.658;2022-12-07T00:49:08;100974.94;;;-8.47
76541;BMP280;65385;55.772;37.658;2022-12-07T00:50:09;100964.78;;;-8.47
76541;BMP280;65385;55.772;37.658;2022-12-07T00:51:11;100974.03;;;-8.46
76541;BMP280;65385;55.772;37.658;2022-12-07T00:52:12;100971.56;;;-8.48
76541;BMP280;65385;55.772;37.658;2022-12-07T00:53:13;100972.41;;;-8.47
76541;BMP280;65385;55.772;37.658;2022-12-07T00:54:13;100976.66;;;-8.48
76541;BMP280;65385;55.772;37.658;2022-12-07T00:55:14;100959.13;;;-8.51
76541;BMP280;65385;55.772;37.658;2022-12-07T00:56:26;100967.59;;;-8.52
76541;BMP280;65385;55.772;37.658;2022-12-07T00:57:28;100966.88;;;-8.54
76541;BMP280;65385;55.772;37.658;2022-12-07T00:58:30;100958.38;;;-8.53
76541;BMP280;65385;55.772;37.658;2022-12-07T00:59:30;100965.97;;;-8.53
76541;BMP280;65385;55.772;37.658;2022-12-07T01:00:31;100963.44;;;-8.53
76541;BMP280;65385;55.772;37.658;2022-12-07T01:01:35;100968.50;;;-8.53
76541;BMP280;65385;55.772;37.658;2022-12-07T01:02:36;100963.44;;;-8.53
76541;BMP280;65385;55.772;37.658;2022-12-07T01:03:37;100961.00;;;-8.54
76541;BMP280;65385;55.772;37.658;2022-12-07T01:04:38;100965.25;;;-8.55
76541;BMP280;65385;55.772;37.658;2022-12-07T01:05:39;100968.59;;;-8.54
76541;BMP280;65385;55.772;37.658;2022-12-07T01:06:39;100961.13;;;-8.56
76541;BMP280;65385;55.772;37.658;2022-12-07T01:07:40;100963.66;;;-8.56
76541;BMP280;65385;55.772;37.658;2022-12-07T01:08:40;100970.31;;;-8.55
76541;BMP280;65385;55.772;37.658;2022-12-07T01:09:41;100954.94;;;-8.52
76541;BMP280;65385;55.772;37.658;2022-12-07T01:10:41;100970.97;;;-8.51
76541;BMP280;65385;55.772;37.658;2022-12-07T01:11:42;100960.84;;;-8.51
76541;BMP280;65385;55.772;37.658;2022-12-07T01:12:42;100963.44;;;-8.53
76541;BMP280;65385;55.772;37.658;2022-12-07T01:13:44;100960.84;;;-8.51
76541;BMP280;65385;55.772;37.658;2022-12-07T01:14:44;100960.91;;;-8.53
76541;BMP280;65385;55.772;37.658;2022-12-07T01:15:45;100968.50;;;-8.53
76541;BMP280;65385;55.772;37.658;2022-12-07T01:16:45;100955.84;;;-8.53
76541;BMP280;65385;55.772;37.658;2022-12-07T01:17:46;100962.63;;;-8.53
76541;BMP280;65385;55.772;37.658;2022-12-07T01:18:49;100961.81;;;-8.54
76541;BMP280;65385;55.772;37.658;2022-12-07T01:19:50;100960.84;;;-8.51
76541;BMP280;65385;55.772;37.658;2022-12-07T01:21:04;100960.84;;;-8.51
76541;BMP280;65385;55.772;37.658;2022-12-07T01:22:05;100960.09;;;-8.53
76541;BMP280;65385;55.772;37.658;2022-12-07T01:23:06;100957.66;;;-8.55
76541;BMP280;65385;55.772;37.658;2022-12-07T01:24:09;100955.84;;;-8.53
76541;BMP280;65385;55.772;37.658;2022-12-07T01:25:11;100958.38;;;-8.53
76541;BMP280;65385;55.772;37.658;2022-12-07T01:26:15;100954.94;;;-8.52
76541;BMP280;65385;55.772;37.658;2022-12-07T01:27:16;100947.41;;;-8.53
76541;BMP280;65385;55.772;37.658;2022-12-07T01:28:17;100946.59;;;-8.54
76541;BMP280;65385;55.772;37.658;2022-12-07T01:29:17;100950.03;;;-8.55
76541;BMP280;65385;55.772;37.658;2022-12-07T01:30:18;100952.56;;;-8.55
76541;BMP280;65385;55.772;37.658;2022-12-07T01:31:20;100950.03;;;-8.55
76541;BMP280;65385;55.772;37.658;2022-12-07T01:32:21;100961.13;;;-8.56
76541;BMP280;65385;55.772;37.658;2022-12-07T01:33:22;100946.81;;;-8.57
76541;BMP280;65385;55.772;37.658;2022-12-07T01:34:22;100958.59;;;-8.56
76541;BMP280;65385;55.772;37.658;2022-12-07T01:35:23;100951.06;;;-8.57
76541;BMP280;65385;55.772;37.658;2022-12-07T01:36:25;100955.31;;;-8.58
76541;BMP280;65385;55.772;37.658;2022-12-07T01:37:26;100953.69;;;-8.59
76541;BMP280;65385;55.772;37.658;2022-12-07T01:38:26;100951.25;;;-8.60
76541;BMP280;65385;55.772;37.658;2022-12-07T01:39:27;100949.53;;;-8.60
76541;BMP280;65385;55.772;37.658;2022-12-07T01:40:27;100950.44;;;-8.61
76541;BMP280;65385;55.772;37.658;2022-12-07T01:41:31;100954.78;;;-8.63
76541;BMP280;65385;55.772;37.658;2022-12-07T01:42:32;100948.78;;;-8.62
76541;BMP280;65385;55.772;37.658;2022-12-07T01:43:33;100947.97;;;-8.62
76541;BMP280;65385;55.772;37.658;2022-12-07T01:46:33;100938.66;;;-8.62
76541;BMP280;65385;55.772;37.658;2022-12-07T01:47:33;100955.50;;;-8.61
76541;BMP280;65385;55.772;37.658;2022-12-07T01:48:38;100941.13;;;-8.60
76541;BMP280;65385;55.772;37.658;2022-12-07T01:49:43;100939.50;;;-8.61
76541;BMP280;65385;55.772;37.658;2022-12-07T01:50:48;100937.94;;;-8.64
76541;BMP280;65385;55.772;37.658;2022-12-07T01:51:51;100931.97;;;-8.63
76541;BMP280;65385;55.772;37.658;2022-12-07T01:52:54;100939.75;;;-8.66
76541;BMP280;65385;55.772;37.658;2022-12-07T01:53:56;100939.03;;;-8.68
76541;BMP280;65385;55.772;37.658;2022-12-07T01:55:02;100940.66;;;-8.67
76541;BMP280;65385;55.772;37.658;2022-12-07T01:56:03;100933.97;;;-8.68
76541;BMP280;65385;55.772;37.658;2022-12-07T01:57:06;100935.69;;;-8.68
76541;BMP280;65385;55.772;37.658;2022-12-07T01:58:09;100932.47;;;-8.70
76541;BMP280;65385;55.772;37.658;2022-12-07T01:59:10;100935.78;;;-8.70
76541;BMP280;65385;55.772;37.658;2022-12-07T02:00:11;100932.53;;;-8.72
76541;BMP280;65385;55.772;37.658;2022-12-07T02:01:15;100941.03;;;-8.73
76541;BMP280;65385;55.772;37.658;2022-12-07T02:02:49;100936.72;;;-8.71
76541;BMP280;65385;55.772;37.658;2022-12-07T02:03:52;100936.78;;;-8.73
76541;BMP280;65385;55.772;37.658;2022-12-07T02:04:53;100932.53;;;-8.72
76541;BMP280;65385;55.772;37.658;2022-12-07T02:05:56;100934.34;;;-8.74
76541;BMP280;65385;55.772;37.658;2022-12-07T02:06:59;100936.88;;;-8.74
76541;BMP280;65385;55.772;37.658;2022-12-07T02:08:00;100932.72;;;-8.75
76541;BMP280;65385;55.772;37.658;2022-12-07T02:09:01;100935.25;;;-8.75
76541;BMP280;65385;55.772;37.658;2022-12-07T02:10:22;100934.34;;;-8.74
76541;BMP280;65385;55.772;37.658;2022-12-07T02:11:23;100926.81;;;-8.76
76541;BMP280;65385;55.772;37.658;2022-12-07T02:12:24;100926.75;;;-8.74
76541;BMP280;65385;55.772;37.658;2022-12-07T02:13:27;100929.13;;;-8.71
76541;BMP280;65385;55.772;37.658;2022-12-07T02:14:30;100934.19;;;-8.71
76541;BMP280;65385;55.772;37.658;2022-12-07T02:17:25;100924.19;;;-8.74
76541;BMP280;65385;55.772;37.658;2022-12-07T02:24:48;100922.22;;;-8.83
76541;BMP280;65385;55.772;37.658;2022-12-07T02:25:59;100919.69;;;-8.83
76541;BMP280;65385;55.772;37.658;2022-12-07T02:30:40;100916.63;;;-8.88
76541;BMP280;65385;55.772;37.658;2022-12-07T02:31:46;100918.44;;;-8.90
76541;BMP280;65385;55.772;37.658;2022-12-07T02:32:57;100925.13;;;-8.89
76541;BMP280;65385;55.772;37.658;2022-12-07T02:34:15;100924.38;;;-8.91
76541;BMP280;65385;55.772;37.658;2022-12-07T02:35:33;100922.69;;;-8.91
76541;BMP280;65385;55.772;37.658;2022-12-07T02:36:39;100919.44;;;-8.93
76541;BMP280;65385;55.772;37.658;2022-12-07T02:38:55;100917.00;;;-8.94
76541;BMP280;65385;55.772;37.658;2022-12-07T02:41:34;100921.25;;;-8.95
76541;BMP280;65385;55.772;37.658;2022-12-07T02:42:57;100920.44;;;-8.95
76541;BMP280;65385;55.772;37.658;2022-12-07T02:44:13;100926.31;;;-8.95
76541;BMP280;65385;55.772;37.658;2022-12-07T02:45:18;100925.50;;;-8.95
76541;BMP280;65385;55.772;37.658;2022-12-07T02:46:23;100916.28;;;-8.96
76541;BMP280;65385;55.772;37.658;2022-12-07T02:47:26;100917.00;;;-8.94
76541;BMP280;65385;55.772;37.658;2022-12-07T02:48:31;100922.06;;;-8.94
76541;BMP280;65385;55.772;37.658;2022-12-07T02:49:33;100927.94;;;-8.94
76541;BMP280;65385;55.772;37.658;2022-12-07T02:50:34;100924.69;;;-8.96
76541;BMP280;65385;55.772;37.658;2022-12-07T02:51:39;100928.84;;;-8.95
76541;BMP280;65385;55.772;37.658;2022-12-07T02:52:40;100921.97;;;-8.93
76541;BMP280;65385;55.772;37.658;2022-12-07T02:53:42;100927.13;;;-8.94
76541;BMP280;65385;55.772;37.658;2022-12-07T02:54:43;100926.22;;;-8.93
76541;BMP280;65385;55.772;37.658;2022-12-07T02:55:43;100927.94;;;-8.94
76541;BMP280;65385;55.772;37.658;2022-12-07T02:58:16;100918.63;;;-8.93
76541;BMP280;65385;55.772;37.658;2022-12-07T03:01:34;100914.25;;;-8.91
76541;BMP280;65385;55.772;37.658;2022-12-07T03:03:48;100917.91;;;-8.95
76541;BMP280;65385;55.772;37.658;2022-12-07T03:06:11;100913.75;;;-8.96
76541;BMP280;65385;55.772;37.658;2022-12-07T03:07:21;100913.03;;;-8.98
76541;BMP280;65385;55.772;37.658;2022-12-07T03:08:53;100913.03;;;-8.98
76541;BMP280;65385;55.772;37.658;2022-12-07T03:10:14;100915.56;;;-8.98
76541;BMP280;65385;55.772;37.658;2022-12-07T03:11:40;100919.03;;;-8.99
76541;BMP280;65385;55.772;37.658;2022-12-07T03:12:56;100915.56;;;-8.98
76541;BMP280;65385;55.772;37.658;2022-12-07T03:14:13;100917.38;;;-9.00
76541;BMP280;65385;55.772;37.658;2022-12-07T03:15:26;100908.88;;;-8.99
76541;BMP280;65385;55.772;37.658;2022-12-07T03:16:31;100910.66;;;-9.01
76541;BMP280;65385;55.772;37.658;2022-12-07T03:17:35;100914.19;;;-9.04
76541;BMP280;65385;55.772;37.658;2022-12-07T03:18:46;100909.94;;;-9.03
76541;BMP280;65385;55.772;37.658;2022-12-07T03:19:49;100910.84;;;-9.04
76541;BMP280;65385;55.772;37.658;2022-12-07T03:20:55;100915.09;;;-9.05
76541;BMP280;65385;55.772;37.658;2022-12-07T03:22:00;100916.72;;;-9.04
76541;BMP280;65385;55.772;37.658;2022-12-07T03:23:04;100916.81;;;-9.05
76541;BMP280;65385;55.772;37.658;2022-12-07T03:24:15;100904.38;;;-9.09
76541;BMP280;65385;55.772;37.658;2022-12-07T03:25:17;100911.88;;;-9.07
76541;BMP280;65385;55.772;37.658;2022-12-07T03:26:19;100914.50;;;-9.09
76541;BMP280;65385;55.772;37.658;2022-12-07T03:28:34;100912.91;;;-9.11
76541;BMP280;65385;55.772;37.658;2022-12-07T03:29:42;100914.63;;;-9.12
76541;BMP280;65385;55.772;37.658;2022-12-07T03:31:51;100908.97;;;-9.15
76541;BMP280;65385;55.772;37.658;2022-12-07T03:33:08;100917.56;;;-9.18
76541;BMP280;65385;55.772;37.658;2022-12-07T03:34:17;100914.22;;;-9.18
76541;BMP280;65385;55.772;37.658;2022-12-07T03:35:26;100909.28;;;-9.21
76541;BMP280;65385;55.772;37.658;2022-12-07T03:36:32;100908.50;;;-9.22
76541;BMP280;65385;55.772;37.658;2022-12-07T03:37:40;100915.38;;;-9.24
76541;BMP280;65385;55.772;37.658;2022-12-07T03:39:23;100911.94;;;-9.23
76541;BMP280;65385;55.772;37.658;2022-12-07T03:40:28;100908.69;;;-9.25
76541;BMP280;65385;55.772;37.658;2022-12-07T03:41:32;100912.13;;;-9.26
76541;BMP280;65385;55.772;37.658;2022-12-07T03:42:34;100908.88;;;-9.28
76541;BMP280;65385;55.772;37.658;2022-12-07T03:43:35;100912.34;;;-9.29
76541;BMP280;65385;55.772;37.658;2022-12-07T03:44:37;100914.09;;;-9.31
76541;BMP280;65385;55.772;37.658;2022-12-07T03:45:41;100903.25;;;-9.33
76541;BMP280;65385;55.772;37.658;2022-12-07T03:49:36;100916.19;;;-9.37
76541;BMP280;65385;55.772;37.658;2022-12-07T03:50:50;100906.94;;;-9.38
76541;BMP280;65385;55.772;37.658;2022-12-07T03:53:11;100907.94;;;-9.41
76541;BMP280;65385;55.772;37.658;2022-12-07T03:54:19;100915.63;;;-9.43
76541;BMP280;65385;55.772;37.658;2022-12-07T03:55:31;100911.59;;;-9.45
76541;BMP280;65385;55.772;37.658;2022-12-07T03:56:33;100902.41;;;-9.48
76541;BMP280;65385;55.772;37.658;2022-12-07T03:57:35;100909.28;;;-9.50
76541;BMP280;65385;55.772;37.658;2022-12-07T03:58:37;100910.22;;;-9.51
76541;BMP280;65385;55.772;37.658;2022-12-07T03:59:39;100911.00;;;-9.50
76541;BMP280;65385;55.772;37.658;2022-12-07T04:00:41;100910.31;;;-9.52
76541;BMP280;65385;55.772;37.658;2022-12-07T04:01:44;100914.53;;;-9.53
76541;BMP280;65385;55.772;37.658;2022-12-07T04:02:45;100904.50;;;-9.54
76541;BMP280;65385;55.772;37.658;2022-12-07T04:03:46;100907.03;;;-9.54
76541;BMP280;65385;55.772;37.658;2022-12-07T04:04:46;100899.72;;;-9.59
76541;BMP280;65385;55.772;37.658;2022-12-07T04:05:47;100910.53;;;-9.57
76541;BMP280;65385;55.772;37.658;2022-12-07T04:06:48;100905.59;;;-9.58
76541;BMP280;65385;55.772;37.658;2022-12-07T04:07:48;100907.19;;;-9.57
76541;BMP280;65385;55.772;37.658;2022-12-07T04:08:49;100904.78;;;-9.59
76541;BMP280;65385;55.772;37.658;2022-12-07T04:09:49;100902.31;;;-9.60
76541;BMP280;65385;55.772;37.658;2022-12-07T04:10:50;100907.38;;;-9.60
76541;BMP280;65385;55.772;37.658;2022-12-07T04:11:50;100904.94;;;-9.62
76541;BMP280;65385;55.772;37.658;2022-12-07T04:12:51;100899.16;;;-9.64
76541;BMP280;65385;55.772;37.658;2022-12-07T04:13:51;100901.59;;;-9.62
76541;BMP280;65385;55.772;37.658;2022-12-07T04:15:11;100898.34;;;-9.64
76541;BMP280;65385;55.772;37.658;2022-12-07T04:16:12;100905.13;;;-9.65
76541;BMP280;65385;55.772;37.658;2022-12-07T04:17:12;100900.88;;;-9.64
76541;BMP280;65385;55.772;37.658;2022-12-07T04:18:13;100896.78;;;-9.67
76541;BMP280;65385;55.772;37.658;2022-12-07T04:19:14;100896.78;;;-9.67
76541;BMP280;65385;55.772;37.658;2022-12-07T04:20:15;100897.63;;;-9.66
76541;BMP280;65385;55.772;37.658;2022-12-07T04:21:15;100895.09;;;-9.66
76541;BMP280;65385;55.772;37.658;2022-12-07T04:22:16;100895.97;;;-9.67
76541;BMP280;65385;55.772;37.658;2022-12-07T04:23:16;100894.34;;;-9.68
76541;BMP280;65385;55.772;37.658;2022-12-07T04:24:17;100897.78;;;-9.69
76541;BMP280;65385;55.772;37.658;2022-12-07T04:25:18;100907.09;;;-9.70
76541;BMP280;65385;55.772;37.658;2022-12-07T04:26:18;100902.13;;;-9.71
76541;BMP280;65385;55.772;37.658;2022-12-07T04:27:19;100903.94;;;-9.73
76541;BMP280;65385;55.772;37.658;2022-12-07T04:28:19;100894.53;;;-9.71
76541;BMP280;65385;55.772;37.658;2022-12-07T04:29:20;100893.00;;;-9.74
76541;BMP280;65385;55.772;37.658;2022-12-07T04:30:20;100898.13;;;-9.76
76541;BMP280;65385;55.772;37.658;2022-12-07T04:31:21;100894.72;;;-9.74
76541;BMP280;65385;55.772;37.658;2022-12-07T04:32:22;100893.97;;;-9.77
76541;BMP280;65385;55.772;37.658;2022-12-07T04:33:23;100897.41;;;-9.78
76541;BMP280;65385;55.772;37.658;2022-12-07T04:34:23;100895.59;;;-9.76
76541;BMP280;65385;55.772;37.658;2022-12-07T04:35:24;100888.91;;;-9.77
76541;BMP280;65385;55.772;37.658;2022-12-07T04:36:24;100897.31;;;-9.76
76541;BMP280;65385;55.772;37.658;2022-12-07T04:37:25;100889.66;;;-9.74
76541;BMP280;65385;55.772;37.658;2022-12-07T04:38:26;100897.25;;;-9.74
76541;BMP280;65385;55.772;37.658;2022-12-07T04:39:29;100888.09;;;-9.77
76541;BMP280;65385;55.772;37.658;2022-12-07T04:40:30;100890.63;;;-9.77
76541;BMP280;65385;55.772;37.658;2022-12-07T04:41:31;100888.00;;;-9.76
76541;BMP280;65385;55.772;37.658;2022-12-07T04:42:31;100885.66;;;-9.79
76541;BMP280;65385;55.772;37.658;2022-12-07T04:43:32;100889.81;;;-9.78
76541;BMP280;65385;55.772;37.658;2022-12-07T04:44:33;100889.81;;;-9.78
76541;BMP280;65385;55.772;37.658;2022-12-07T04:45:33;100885.66;;;-9.79
76541;BMP280;65385;55.772;37.658;2022-12-07T04:46:34;100885.66;;;-9.79
76541;BMP280;65385;55.772;37.658;2022-12-07T04:47:34;100888.19;;;-9.79
76541;BMP280;65385;55.772;37.658;2022-12-07T04:48:35;100889.00;;;-9.78
76541;BMP280;65385;55.772;37.658;2022-12-07T04:49:35;100883.13;;;-9.79
76541;BMP280;65385;55.772;37.658;2022-12-07T04:50:36;100896.59;;;-9.78
76541;BMP280;65385;55.772;37.658;2022-12-07T04:51:38;100890.63;;;-9.77
76541;BMP280;65385;55.772;37.658;2022-12-07T04:52:39;100880.59;;;-9.79
76541;BMP280;65385;55.772;37.658;2022-12-07T04:53:39;100889.19;;;-9.81
76541;BMP280;65385;55.772;37.658;2022-12-07T04:54:40;100877.38;;;-9.81
76541;BMP280;65385;55.772;37.658;2022-12-07T04:55:41;100885.84;;;-9.82
76541;BMP280;65385;55.772;37.658;2022-12-07T04:56:42;100891.00;;;-9.83
76541;BMP280;65385;55.772;37.658;2022-12-07T04:57:43;100884.38;;;-9.86
76541;BMP280;65385;55.772;37.658;2022-12-07T04:58:45;100889.44;;;-9.86
76541;BMP280;65385;55.772;37.658;2022-12-07T04:59:46;100885.28;;;-9.87
76541;BMP280;65385;55.772;37.658;2022-12-07T05:00:46;100888.59;;;-9.86
76541;BMP280;65385;55.772;37.658;2022-12-07T05:01:47;100885.28;;;-9.87
76541;BMP280;65385;55.772;37.658;2022-12-07T05:02:48;100883.66;;;-9.88
76541;BMP280;65385;55.772;37.658;2022-12-07T05:03:48;100887.91;;;-9.88
76541;BMP280;65385;55.772;37.658;2022-12-07T05:04:49;100888.81;;;-9.89
76541;BMP280;65385;55.772;37.658;2022-12-07T05:05:49;100886.38;;;-9.91
76541;BMP280;65385;55.772;37.658;2022-12-07T05:06:50;100897.34;;;-9.92
76541;BMP280;65385;55.772;37.658;2022-12-07T05:07:50;100891.47;;;-9.92
76541;BMP280;65385;55.772;37.658;2022-12-07T05:08:51;100887.22;;;-9.92
76541;BMP280;65385;55.772;37.658;2022-12-07T05:09:52;100882.38;;;-9.95
76541;BMP280;65385;55.772;37.658;2022-12-07T05:10:52;100892.38;;;-9.93
76541;BMP280;65385;55.772;37.658;2022-12-07T05:11:53;100889.97;;;-9.95
76541;BMP280;65385;55.772;37.658;2022-12-07T05:12:53;100895.03;;;-9.95
76541;BMP280;65385;55.772;37.658;2022-12-07T05:13:54;100889.22;;;-9.97
76541;BMP280;65385;55.772;37.658;2022-12-07T05:14:54;100894.28;;;-9.97
76541;BMP280;65385;55.772;37.658;2022-12-07T05:15:54;100893.56;;;-9.99
76541;BMP280;65385;55.772;37.658;2022-12-07T05:16:55;100897.97;;;-10.02
76541;BMP280;65385;55.772;37.658;2022-12-07T05:17:56;100896.25;;;-10.02
76541;BMP280;65385;55.772;37.658;2022-12-07T05:18:56;100892.91;;;-10.02
76541;BMP280;65385;55.772;37.658;2022-12-07T05:19:57;100898.88;;;-10.03
76541;BMP280;65385;55.772;37.658;2022-12-07T05:20:57;100893.91;;;-10.05
76541;BMP280;65385;55.772;37.658;2022-12-07T05:21:58;100893.97;;;-10.06
76541;BMP280;65385;55.772;37.658;2022-12-07T05:22:58;100892.28;;;-10.06
76541;BMP280;65385;55.772;37.658;2022-12-07T05:23:59;100899.84;;;-10.06
76541;BMP280;65385;55.772;37.658;2022-12-07T05:25:00;100893.16;;;-10.07
76541;BMP280;65385;55.772;37.658;2022-12-07T05:26:00;100891.47;;;-10.06
76541;BMP280;65385;55.772;37.658;2022-12-07T05:27:01;100888.13;;;-10.07
76541;BMP280;65385;55.772;37.658;2022-12-07T05:28:03;100890.72;;;-10.09
76541;BMP280;65385;55.772;37.658;2022-12-07T05:29:04;100884.03;;;-10.10
76541;BMP280;65385;55.772;37.658;2022-12-07T05:30:05;100882.41;;;-10.11
76541;BMP280;65385;55.772;37.658;2022-12-07T05:31:05;100889.91;;;-10.09
76541;BMP280;65385;55.772;37.658;2022-12-07T05:32:06;100889.91;;;-10.09
76541;BMP280;65385;55.772;37.658;2022-12-07T05:33:07;100889.91;;;-10.09
76541;BMP280;65385;55.772;37.658;2022-12-07T05:34:08;100898.38;;;-10.10
76541;BMP280;65385;55.772;37.658;2022-12-07T05:35:09;100891.72;;;-10.11
76541;BMP280;65385;55.772;37.658;2022-12-07T05:36:09;100885.75;;;-10.10
76541;BMP280;65385;55.772;37.658;2022-12-07T05:37:10;100890.06;;;-10.12
76541;BMP280;65385;55.772;37.658;2022-12-07T05:38:11;100894.97;;;-10.09
76541;BMP280;65385;55.772;37.658;2022-12-07T05:39:11;100884.03;;;-10.10
76541;BMP280;65385;55.772;37.658;2022-12-07T05:40:13;100888.28;;;-10.10
76541;BMP280;65385;55.772;37.658;2022-12-07T05:41:15;100892.44;;;-10.09
76541;BMP280;65385;55.772;37.658;2022-12-07T05:42:35;100894.06;;;-10.08
76541;BMP280;65385;55.772;37.658;2022-12-07T05:43:35;100894.97;;;-10.09
76541;BMP280;65385;55.772;37.658;2022-12-07T05:44:36;100894.06;;;-10.08
76541;BMP280;65385;55.772;37.658;2022-12-07T05:45:37;100900.75;;;-10.07
76541;BMP280;65385;55.772;37.658;2022-12-07T05:46:37;100893.00;;;-10.04
76541;BMP280;65385;55.772;37.658;2022-12-07T05:47:38;100899.78;;;-10.04
76541;BMP280;65385;55.772;37.658;2022-12-07T05:48:38;100887.03;;;-10.03
76541;BMP280;65385;55.772;37.658;2022-12-07T05:49:39;100893.81;;;-10.03
76541;BMP280;65385;55.772;37.658;2022-12-07T05:50:40;100891.19;;;-10.02
76541;BMP280;65385;55.772;37.658;2022-12-07T05:51:40;100884.41;;;-10.01
76541;BMP280;65385;55.772;37.658;2022-12-07T05:52:41;100890.28;;;-10.01
76541;BMP280;65385;55.772;37.658;2022-12-07T05:53:41;100887.75;;;-10.01
76541;BMP280;65385;55.772;37.658;2022-12-07T05:54:42;100888.50;;;-9.99
76541;BMP280;65385;55.772;37.658;2022-12-07T05:55:43;100887.44;;;-9.95
76541;BMP280;65385;55.772;37.658;2022-12-07T05:56:44;100885.81;;;-9.96
76541;BMP280;65385;55.772;37.658;2022-12-07T05:57:44;100884.91;;;-9.95
76541;BMP280;65385;55.772;37.658;2022-12-07T05:59:05;100889.50;;;-9.87
76541;BMP280;65385;55.772;37.658;2022-12-07T06:00:24;100892.19;;;-9.74
76541;BMP280;65385;55.772;37.658;2022-12-07T06:01:24;100889.84;;;-9.63
76541;BMP280;65385;55.772;37.658;2022-12-07T06:02:25;100887.19;;;-9.46
76541;BMP280;65385;55.772;37.658;2022-12-07T06:03:25;100887.03;;;-9.29
76541;BMP280;65385;55.772;37.658;2022-12-07T06:04:28;100893.47;;;-9.11
76541;BMP280;65385;55.772;37.658;2022-12-07T06:05:29;100886.59;;;-8.94
76541;BMP280;65385;55.772;37.658;2022-12-07T06:06:29;100888.22;;;-8.79
76541;BMP280;65385;55.772;37.658;2022-12-07T06:07:30;100879.66;;;-8.64
76541;BMP280;65385;55.772;37.658;2022-12-07T06:08:30;100893.72;;;-8.46
76541;BMP280;65385;55.772;37.658;2022-12-07T06:09:32;100889.50;;;-8.32
76541;BMP280;65385;55.772;37.658;2022-12-07T06:10:33;100875.19;;;-8.19
76541;BMP280;65385;55.772;37.658;2022-12-07T06:11:33;100880.03;;;-8.03
76541;BMP280;65385;55.772;37.658;2022-12-07T06:12:52;100886.78;;;-7.90
76541;BMP280;65385;55.772;37.658;2022-12-07T06:13:53;100880.88;;;-7.78
76541;BMP280;65385;55.772;37.658;2022-12-07T06:14:54;100882.63;;;-7.65
76541;BMP280;65385;55.772;37.658;2022-12-07T06:15:54;100877.69;;;-7.54
76541;BMP280;65385;55.772;37.658;2022-12-07T06:16:55;100877.66;;;-7.42
76541;BMP280;65385;55.772;37.658;2022-12-07T06:17:55;100883.72;;;-7.31
76541;BMP280;65385;55.772;37.658;2022-12-07T06:18:56;100882.97;;;-7.21
76541;BMP280;65385;55.772;37.658;2022-12-07T06:19:56;100891.22;;;-7.05
76541;BMP280;65385;55.772;37.658;2022-12-07T06:20:57;100882.72;;;-6.92